Time;durP1;ratioP1;P1;durP2;ratioP2;P2;SDS_P1;SDS_P2;PMS_P1;PMS_P2;Temp;Humidity;BMP_temperature;BMP_pressure;BME280_temperature;BME280_humidity;BME280_pressure;Samples;Min_cycle;Max_cycle;Signal;HPM_P1;HPM_P2
2022/12/17 13:05:52;;;;;;;38.75;34.70;;;;;;;;;;5106390;27;20043;-75
2022/12/17 13:08:24;;;;;;;29.23;26.27;;;;;;;;;;5096546;27;20329;-74
2022/12/17 13:10:50;;;;;;;23.98;21.48;;;;;;;;;;5089511;27;20084;-75
2022/12/17 13:13:15;;;;;;;18.08;16.27;;;;;;;;;;5090138;27;20043;-75
2022/12/17 13:15:44;;;;;;;26.02;23.63;;;;;;;;;;5090420;28;20051;-73
2022/12/17 13:18:13;;;;;;;19.80;17.25;;;;;;;;;;5091411;27;20526;-73
2022/12/17 13:20:38;;;;;;;22.95;20.65;;;;;;;;;;5090625;27;20027;-74
2022/12/17 13:23:13;;;;;;;17.75;14.02;;;;;;;;;;5090522;27;20668;-73
2022/12/17 13:25:38;;;;;;;21.27;19.30;;;;;;;;;;5090894;27;20020;-73
2022/12/17 13:28:04;;;;;;;16.63;15.13;;;;;;;;;;5073885;28;20043;-73
2022/12/17 13:30:29;;;;;;;16.70;15.20;;;;;;;;;;5091001;27;20019;-74
2022/12/17 13:33:07;;;;;;;19.40;17.30;;;;;;;;;;5090545;27;20040;-76
2022/12/17 13:35:40;;;;;;;13.55;12.23;;;;;;;;;;5090637;27;20035;-73
2022/12/17 13:38:28;;;;;;;34.22;29.77;;;;;;;;;;5090106;27;20019;-72
2022/12/17 13:40:53;;;;;;;29.13;26.13;;;;;;;;;;5090651;27;20106;-75
2022/12/17 13:43:20;;;;;;;39.30;33.53;;;;;;;;;;5090356;28;20122;-74
2022/12/17 13:45:46;;;;;;;18.30;16.55;;;;;;;;;;5089257;28;20099;-74
2022/12/17 13:48:19;;;;;;;19.50;17.35;;;;;;;;;;5090437;27;20394;-73
2022/12/17 13:50:52;;;;;;;33.22;24.35;;;;;;;;;;5090043;27;20118;-73
2022/12/17 13:53:17;;;;;;;19.38;17.60;;;;;;;;;;5084689;28;20365;-74
2022/12/17 13:55:48;;;;;;;18.20;16.55;;;;;;;;;;5068765;28;20081;-74
2022/12/17 13:58:24;;;;;;;25.05;22.60;;;;;;;;;;5088992;27;20118;-75
2022/12/17 14:00:50;;;;;;;27.55;24.95;;;;;;;;;;5088587;27;20023;-75
2022/12/17 14:03:18;;;;;;;39.08;32.38;;;;;;;;;;5071498;28;20034;-74
2022/12/17 14:05:44;;;;;;;36.08;26.98;;;;;;;;;;5089309;28;20027;-75
2022/12/17 14:08:16;;;;;;;40.05;31.75;;;;;;;;;;5088834;28;20080;-75
2022/12/17 14:10:46;;;;;;;46.95;41.90;;;;;;;;;;5088885;28;20476;-76
2022/12/17 14:13:13;;;;;;;39.03;35.00;;;;;;;;;;5088983;28;20039;-74
2022/12/17 14:15:43;;;;;;;41.88;33.67;;;;;;;;;;5103921;27;20116;-74
2022/12/17 14:18:13;;;;;;;97.38;66.35;;;;;;;;;;5089819;28;20438;-75
2022/12/17 14:20:39;;;;;;;106.72;75.88;;;;;;;;;;5089298;27;20036;-74
2022/12/17 14:23:13;;;;;;;54.30;44.38;;;;;;;;;;5098933;28;20093;-73
2022/12/17 14:25:39;;;;;;;42.25;37.67;;;;;;;;;;5072133;28;20027;-75
2022/12/17 14:28:28;;;;;;;51.90;46.45;;;;;;;;;;5103271;27;20053;-74
2022/12/17 14:31:02;;;;;;;47.10;42.15;;;;;;;;;;5085755;28;20023;-75
2022/12/17 14:33:28;;;;;;;65.65;55.90;;;;;;;;;;5101089;27;20063;-73
2022/12/17 14:35:57;;;;;;;36.58;32.97;;;;;;;;;;5102201;27;21278;-74
2022/12/17 14:38:23;;;;;;;45.58;41.00;;;;;;;;;;5103758;27;20084;-76
2022/12/17 14:40:48;;;;;;;40.17;36.45;;;;;;;;;;5104514;27;20027;-75
2022/12/17 14:43:14;;;;;;;38.45;31.95;;;;;;;;;;5102124;27;20031;-73
2022/12/17 14:51:21;;;;;;;35.55;29.77;;;;;;;;;;5085965;28;20053;-76
2022/12/17 14:53:46;;;;;;;;;;;;;;;;;;5101710;27;20063;-74
2022/12/17 14:56:20;;;;;;;40.20;35.83;;;;;;;;;;5090601;27;20377;-74
2022/12/17 14:58:46;;;;;;;40.33;35.75;;;;;;;;;;5101694;28;20027;-74
2022/12/17 15:01:12;;;;;;;49.50;41.47;;;;;;;;;;5089150;28;20035;-76
2022/12/17 15:03:39;;;;;;;46.55;41.58;;;;;;;;;;5069209;28;20073;-75
2022/12/17 15:06:14;;;;;;;45.42;40.58;;;;;;;;;;5087897;28;20454;-76
2022/12/17 15:08:40;;;;;;;62.65;46.65;;;;;;;;;;5088198;28;20031;-75
2022/12/17 15:11:06;;;;;;;88.72;65.10;;;;;;;;;;5088287;28;20019;-75
2022/12/17 15:13:32;;;;;;;68.00;55.80;;;;;;;;;;5086555;28;20771;-75
2022/12/17 15:15:58;;;;;;;67.05;52.42;;;;;;;;;;5088566;28;20063;-75
2022/12/17 15:18:24;;;;;;;62.83;50.58;;;;;;;;;;5089920;28;20055;-73
2022/12/17 15:20:49;;;;;;;57.17;44.33;;;;;;;;;;5090494;28;20052;-76
2022/12/17 15:23:15;;;;;;;42.80;32.58;;;;;;;;;;5095311;28;20449;-75
2022/12/17 15:25:41;;;;;;;48.83;41.70;;;;;;;;;;5073433;28;20349;-75
2022/12/17 15:28:07;;;;;;;50.80;42.33;;;;;;;;;;5102679;28;20016;-75
2022/12/17 15:30:32;;;;;;;45.08;32.17;;;;;;;;;;5091111;28;20022;-75
2022/12/17 15:32:57;;;;;;;50.97;41.38;;;;;;;;;;5093333;28;20125;-74
2022/12/17 15:35:23;;;;;;;73.72;49.63;;;;;;;;;;5088734;28;20491;-76
2022/12/17 15:37:48;;;;;;;54.80;39.65;;;;;;;;;;5088268;28;20027;-75
2022/12/17 15:40:13;;;;;;;63.55;43.55;;;;;;;;;;5087340;28;20023;-76
2022/12/17 15:45:23;;;;;;;43.17;36.55;;;;;;;;;;5088336;28;20080;-75
2022/12/17 15:47:48;;;;;;;75.18;60.40;;;;;;;;;;5087190;28;20399;-77
2022/12/17 15:50:13;;;;;;;77.80;60.72;;;;;;;;;;5087417;28;20725;-75
2022/12/17 15:52:39;;;;;;;121.82;78.45;;;;;;;;;;5088077;28;20595;-76
2022/12/17 15:55:04;;;;;;;98.20;74.45;;;;;;;;;;5088506;28;20027;-75
2022/12/17 15:57:30;;;;;;;51.10;36.38;;;;;;;;;;5088382;28;20016;-75
2022/12/17 15:59:55;;;;;;;91.10;59.10;;;;;;;;;;5088044;28;20482;-76
2022/12/17 16:02:20;;;;;;;72.55;45.58;;;;;;;;;;5088389;28;20028;-76
2022/12/17 16:04:46;;;;;;;80.90;57.05;;;;;;;;;;5100658;28;20020;-74
2022/12/17 16:07:11;;;;;;;156.82;97.10;;;;;;;;;;5090894;28;20171;-76
2022/12/17 16:09:36;;;;;;;66.80;52.63;;;;;;;;;;5100941;28;20050;-75
2022/12/17 16:12:02;;;;;;;60.35;43.75;;;;;;;;;;5102231;28;20104;-74
2022/12/17 16:14:27;;;;;;;83.82;59.88;;;;;;;;;;5100988;28;20451;-74
2022/12/17 16:16:52;;;;;;;55.75;36.50;;;;;;;;;;5088236;28;20339;-74
2022/12/17 16:19:20;;;;;;;103.07;79.32;;;;;;;;;;5091543;27;20404;-75
2022/12/17 16:21:46;;;;;;;40.75;32.47;;;;;;;;;;5089727;27;20019;-76
2022/12/17 16:24:11;;;;;;;50.20;39.85;;;;;;;;;;5091464;27;20560;-74
2022/12/17 16:26:37;;;;;;;47.58;35.50;;;;;;;;;;5104524;27;20664;-74
2022/12/17 16:29:02;;;;;;;41.05;35.15;;;;;;;;;;5104150;27;20024;-77
2022/12/17 16:31:28;;;;;;;83.72;62.55;;;;;;;;;;5090892;28;20439;-76
2022/12/17 16:33:53;;;;;;;83.10;69.50;;;;;;;;;;5096160;28;20127;-74
2022/12/17 16:36:19;;;;;;;61.03;46.17;;;;;;;;;;5092996;27;20066;-76
2022/12/17 16:38:49;;;;;;;110.53;88.00;;;;;;;;;;5098812;28;20040;-75
2022/12/17 16:41:14;;;;;;;;;;;;;;;;;;5101887;27;20039;-74
2022/12/17 16:43:40;;;;;;;51.00;45.83;;;;;;;;;;5098075;28;19907;-77
2022/12/17 16:46:21;;;;;;;54.95;49.15;;;;;;;;;;5105281;27;20099;-75
2022/12/17 16:48:46;;;;;;;46.55;41.20;;;;;;;;;;5093482;27;20425;-74
2022/12/17 16:51:16;;;;;;;70.55;59.20;;;;;;;;;;5091050;27;20148;-74
2022/12/17 16:53:41;;;;;;;43.60;36.03;;;;;;;;;;5091017;27;20084;-73
2022/12/17 16:56:07;;;;;;;50.67;42.15;;;;;;;;;;5060631;28;20023;-74
2022/12/17 16:58:32;;;;;;;40.97;36.55;;;;;;;;;;5089387;27;20461;-75
2022/12/17 17:00:57;;;;;;;38.35;32.65;;;;;;;;;;5087874;27;20031;-76
2022/12/17 17:03:23;;;;;;;44.55;38.00;;;;;;;;;;5088675;28;20023;-75
2022/12/17 17:05:48;;;;;;;33.42;29.95;;;;;;;;;;5095914;28;20027;-78
2022/12/17 17:08:14;;;;;;;36.20;30.35;;;;;;;;;;5103756;27;20030;-78
2022/12/17 17:10:39;;;;;;;63.35;51.28;;;;;;;;;;5104155;27;20030;-76
2022/12/17 17:13:05;;;;;;;65.28;55.10;;;;;;;;;;5102992;28;20450;-76
2022/12/17 17:15:30;;;;;;;48.60;39.72;;;;;;;;;;5104405;27;20029;-78
2022/12/17 17:17:55;;;;;;;65.00;46.58;;;;;;;;;;5104056;27;20123;-77
2022/12/17 17:20:21;;;;;;;56.38;41.95;;;;;;;;;;5105977;27;20059;-77
2022/12/17 17:22:46;;;;;;;98.03;77.93;;;;;;;;;;5104774;28;20023;-77
2022/12/17 17:25:11;;;;;;;58.63;49.20;;;;;;;;;;5098176;27;20011;-77
2022/12/17 17:27:37;;;;;;;37.13;32.90;;;;;;;;;;5100282;27;20028;-77
2022/12/17 17:30:02;;;;;;;33.33;29.67;;;;;;;;;;5105041;27;20058;-76
2022/12/17 17:32:28;;;;;;;32.83;28.98;;;;;;;;;;5106968;27;20034;-78
2022/12/17 17:34:53;;;;;;;37.90;33.40;;;;;;;;;;5090055;27;20046;-77
2022/12/17 17:37:18;;;;;;;47.00;41.78;;;;;;;;;;5104347;27;20098;-79
2022/12/17 17:39:44;;;;;;;68.72;61.67;;;;;;;;;;5106339;27;20051;-77
2022/12/17 17:42:09;;;;;;;49.85;43.13;;;;;;;;;;5105282;27;20413;-77
2022/12/17 17:44:36;;;;;;;68.28;53.65;;;;;;;;;;5106250;27;20028;-76
2022/12/17 17:47:01;;;;;;;59.70;44.33;;;;;;;;;;5105666;27;20489;-75
2022/12/17 17:49:27;;;;;;;51.35;40.33;;;;;;;;;;5106348;27;20031;-78
2022/12/17 17:51:53;;;;;;;42.90;34.08;;;;;;;;;;5105100;27;20424;-77
2022/12/17 17:54:18;;;;;;;38.42;32.95;;;;;;;;;;5104208;27;20115;-76
2022/12/17 17:56:43;;;;;;;31.30;27.90;;;;;;;;;;5099935;28;20504;-76
2022/12/17 17:59:10;;;;;;;28.63;25.15;;;;;;;;;;5097312;27;20393;-77
2022/12/17 18:01:37;;;;;;;33.80;27.50;;;;;;;;;;5106059;27;20038;-78
2022/12/17 18:04:03;;;;;;;21.83;19.52;;;;;;;;;;5098244;27;20034;-76
2022/12/17 18:06:29;;;;;;;25.92;20.58;;;;;;;;;;5101300;27;20463;-76
2022/12/17 18:08:55;;;;;;;40.60;28.15;;;;;;;;;;5107072;27;20015;-75
2022/12/17 18:11:21;;;;;;;45.63;34.22;;;;;;;;;;5103651;27;20051;-76
2022/12/17 18:13:55;;;;;;;44.67;27.85;;;;;;;;;;5099196;27;20050;-75
2022/12/17 18:16:22;;;;;;;64.30;41.22;;;;;;;;;;5090589;27;20019;-76
2022/12/17 18:18:48;;;;;;;74.47;50.20;;;;;;;;;;5094322;27;20043;-76
2022/12/17 18:21:14;;;;;;;57.47;43.40;;;;;;;;;;5071130;28;20446;-75
2022/12/17 18:23:40;;;;;;;85.80;66.18;;;;;;;;;;5103155;27;20039;-76
2022/12/17 18:26:12;;;;;;;45.42;40.25;;;;;;;;;;5091279;28;20035;-76
2022/12/17 18:28:38;;;;;;;46.92;37.90;;;;;;;;;;5078568;27;20047;-76
2022/12/17 18:31:15;;;;;;;48.33;39.70;;;;;;;;;;5103067;27;20055;-78
2022/12/17 18:33:41;;;;;;;58.60;47.50;;;;;;;;;;5106250;27;20054;-76
2022/12/17 18:36:08;;;;;;;73.22;59.33;;;;;;;;;;5102252;27;20066;-76
2022/12/17 18:38:33;;;;;;;56.30;41.05;;;;;;;;;;5102657;27;20523;-76
2022/12/17 18:41:04;;;;;;;40.20;31.08;;;;;;;;;;5090622;28;20020;-77
2022/12/17 18:43:29;;;;;;;79.10;54.67;;;;;;;;;;5097755;27;20055;-76
2022/12/17 18:45:54;;;;;;;40.40;34.05;;;;;;;;;;5091397;28;20441;-75
2022/12/17 18:48:20;;;;;;;39.65;31.42;;;;;;;;;;5089909;28;20084;-76
2022/12/17 18:50:45;;;;;;;29.38;26.25;;;;;;;;;;5101400;28;20039;-76
2022/12/17 18:53:11;;;;;;;36.13;30.52;;;;;;;;;;5100451;28;20059;-76
2022/12/17 18:55:39;;;;;;;62.33;49.92;;;;;;;;;;5101321;28;20385;-76
2022/12/17 18:58:08;;;;;;;54.05;37.30;;;;;;;;;;5102161;27;20016;-78
2022/12/17 19:00:34;;;;;;;41.10;33.47;;;;;;;;;;5101669;27;20084;-77
2022/12/17 19:02:59;;;;;;;59.88;42.28;;;;;;;;;;5102342;28;20036;-77
2022/12/17 19:05:24;;;;;;;54.13;46.33;;;;;;;;;;5101980;27;20419;-75
2022/12/17 19:07:50;;;;;;;55.80;42.30;;;;;;;;;;5102547;28;20084;-78
2022/12/17 19:10:15;;;;;;;60.38;50.90;;;;;;;;;;5083491;27;20028;-77
2022/12/17 19:12:41;;;;;;;86.90;73.28;;;;;;;;;;5087961;28;20044;-76
2022/12/17 19:15:06;;;;;;;57.10;46.15;;;;;;;;;;5095493;28;20034;-76
2022/12/17 19:17:31;;;;;;;64.30;46.60;;;;;;;;;;5102418;28;20094;-78
2022/12/17 19:19:57;;;;;;;42.25;37.50;;;;;;;;;;5093033;28;20034;-75
2022/12/17 19:22:22;;;;;;;45.63;40.00;;;;;;;;;;5091574;28;20031;-74
2022/12/17 19:24:48;;;;;;;51.40;36.53;;;;;;;;;;5101891;28;20024;-75
2022/12/17 19:27:13;;;;;;;66.32;49.75;;;;;;;;;;5102730;28;20080;-76
2022/12/17 19:29:38;;;;;;;61.42;44.63;;;;;;;;;;5103473;28;20035;-77
2022/12/17 19:32:04;;;;;;;57.50;44.17;;;;;;;;;;5103568;28;20024;-75
2022/12/17 19:34:30;;;;;;;47.92;36.30;;;;;;;;;;5090497;28;20114;-74
2022/12/17 19:36:55;;;;;;;65.13;49.58;;;;;;;;;;5090154;28;20027;-75
2022/12/17 19:39:21;;;;;;;58.17;46.28;;;;;;;;;;5090219;28;20028;-75
2022/12/17 19:41:49;;;;;;;68.47;52.28;;;;;;;;;;5101602;28;20081;-77
2022/12/17 19:44:18;;;;;;;67.80;53.35;;;;;;;;;;5100777;28;20389;-76
2022/12/17 19:46:44;;;;;;;81.97;63.57;;;;;;;;;;5100517;28;20442;-75
2022/12/17 19:49:10;;;;;;;72.88;50.78;;;;;;;;;;5101201;28;20278;-76
2022/12/17 19:51:37;;;;;;;42.65;34.95;;;;;;;;;;5107480;27;20098;-76
2022/12/17 19:54:03;;;;;;;36.55;31.27;;;;;;;;;;5103414;27;20493;-77
2022/12/17 19:56:29;;;;;;;34.80;29.52;;;;;;;;;;5091101;28;20051;-76
2022/12/17 19:58:56;;;;;;;37.95;32.20;;;;;;;;;;5090786;28;20057;-77
2022/12/17 20:01:23;;;;;;;51.83;43.78;;;;;;;;;;5091710;28;20059;-75
2022/12/17 20:03:48;;;;;;;62.63;50.42;;;;;;;;;;5091556;28;20047;-75
2022/12/17 20:06:15;;;;;;;87.55;65.20;;;;;;;;;;5092680;28;20067;-75
2022/12/17 20:08:40;;;;;;;82.22;59.08;;;;;;;;;;5092013;27;20033;-76
2022/12/17 20:14:17;;;;;;;202.00;138.45;;;;;;;;;;5092093;27;20050;-75
2022/12/17 20:16:47;;;;;;;189.07;138.60;;;;;;;;;;5070996;28;20028;-76
2022/12/17 20:19:12;;;;;;;;;;;;;;;;;;5091883;28;20081;-75
2022/12/17 20:21:38;;;;;;;75.87;55.10;;;;;;;;;;5091448;28;19919;-77
2022/12/17 20:24:03;;;;;;;98.25;74.80;;;;;;;;;;5100136;27;20027;-75
2022/12/17 20:26:28;;;;;;;60.75;46.70;;;;;;;;;;5106887;27;20019;-75
2022/12/17 20:28:54;;;;;;;50.33;39.50;;;;;;;;;;5107441;27;20028;-77
2022/12/17 20:31:19;;;;;;;79.72;52.58;;;;;;;;;;5076335;28;20027;-76
2022/12/17 20:33:45;;;;;;;64.28;45.17;;;;;;;;;;5091564;27;20035;-77
2022/12/17 20:36:11;;;;;;;119.65;77.22;;;;;;;;;;5091486;27;20024;-77
2022/12/17 20:38:37;;;;;;;91.75;60.03;;;;;;;;;;5092461;27;20497;-76
2022/12/17 20:41:09;;;;;;;41.85;36.03;;;;;;;;;;5091911;27;20027;-75
2022/12/17 20:43:35;;;;;;;40.53;34.95;;;;;;;;;;5092513;27;20042;-76
2022/12/17 20:46:01;;;;;;;45.40;36.63;;;;;;;;;;5090467;27;20031;-77
2022/12/17 20:48:26;;;;;;;55.65;46.53;;;;;;;;;;5089893;27;20020;-76
2022/12/17 20:50:51;;;;;;;52.95;46.00;;;;;;;;;;5092030;27;20023;-73
2022/12/17 20:53:17;;;;;;;60.40;48.47;;;;;;;;;;5091891;27;20603;-73
2022/12/17 20:55:42;;;;;;;76.15;62.38;;;;;;;;;;5092563;27;20423;-74
2022/12/17 20:58:07;;;;;;;71.88;64.22;;;;;;;;;;5091721;27;20080;-73
2022/12/17 21:00:33;;;;;;;83.00;60.70;;;;;;;;;;5090463;27;22442;-76
2022/12/17 21:02:58;;;;;;;83.68;64.68;;;;;;;;;;5090690;27;20450;-74
2022/12/17 21:05:24;;;;;;;63.00;50.35;;;;;;;;;;5089907;28;20438;-76
2022/12/17 21:07:50;;;;;;;68.25;50.88;;;;;;;;;;5101032;28;20035;-76
2022/12/17 21:10:15;;;;;;;38.50;32.45;;;;;;;;;;5102251;28;20338;-73
2022/12/17 21:15:28;;;;;;;68.07;57.03;;;;;;;;;;5099655;27;20038;-76
2022/12/17 21:17:53;;;;;;;39.35;32.97;;;;;;;;;;5070072;28;20110;-77
2022/12/17 21:20:18;;;;;;;62.55;35.97;;;;;;;;;;5089335;28;20102;-74
2022/12/17 21:22:44;;;;;;;39.10;33.00;;;;;;;;;;5091018;27;20578;-74
2022/12/17 21:25:09;;;;;;;41.97;37.85;;;;;;;;;;5091565;27;20396;-74
2022/12/17 21:27:35;;;;;;;34.80;31.08;;;;;;;;;;5090505;27;20077;-75
2022/12/17 21:30:01;;;;;;;45.53;38.08;;;;;;;;;;5072727;28;20024;-76
2022/12/17 21:32:26;;;;;;;38.83;34.63;;;;;;;;;;5072498;28;20020;-76
2022/12/17 21:34:51;;;;;;;86.10;69.50;;;;;;;;;;5089549;27;20031;-76
2022/12/17 21:37:17;;;;;;;77.93;65.55;;;;;;;;;;5089169;28;20031;-75
2022/12/17 21:39:42;;;;;;;76.40;63.55;;;;;;;;;;5090839;27;20076;-76
2022/12/17 21:44:53;;;;;;;56.80;48.50;;;;;;;;;;5089630;27;20500;-77
2022/12/17 21:47:18;;;;;;;89.07;67.13;;;;;;;;;;5089194;27;20034;-77
2022/12/17 21:49:44;;;;;;;73.38;60.30;;;;;;;;;;5090386;27;20019;-76
2022/12/17 21:52:09;;;;;;;75.38;66.53;;;;;;;;;;5073794;28;20032;-78
2022/12/17 21:54:35;;;;;;;87.05;77.47;;;;;;;;;;5070856;27;20134;-77
2022/12/17 21:57:00;;;;;;;88.35;77.78;;;;;;;;;;5072754;27;20027;-75
2022/12/17 21:59:26;;;;;;;92.80;76.38;;;;;;;;;;5071574;28;20031;-75
2022/12/17 22:01:51;;;;;;;66.78;56.05;;;;;;;;;;5088423;27;20023;-75
2022/12/17 22:04:16;;;;;;;69.45;55.63;;;;;;;;;;5089848;27;20032;-76
2022/12/17 22:06:42;;;;;;;38.55;34.35;;;;;;;;;;5089092;27;20023;-75
2022/12/17 22:09:08;;;;;;;57.03;43.00;;;;;;;;;;5070858;28;20044;-74
2022/12/17 22:11:34;;;;;;;45.85;40.42;;;;;;;;;;5088954;27;20135;-78
2022/12/17 22:14:09;;;;;;;85.50;74.13;;;;;;;;;;5088477;27;20023;-77
2022/12/17 22:16:38;;;;;;;78.43;64.43;;;;;;;;;;5089737;27;20126;-74
2022/12/17 22:19:06;;;;;;;87.65;71.05;;;;;;;;;;5071192;28;20462;-75
2022/12/17 22:21:32;;;;;;;67.93;51.80;;;;;;;;;;5088558;27;20075;-75
2022/12/17 22:23:58;;;;;;;66.10;46.65;;;;;;;;;;5088584;28;20519;-76
2022/12/17 22:26:23;;;;;;;66.15;51.10;;;;;;;;;;5088435;28;20059;-76
2022/12/17 22:28:49;;;;;;;81.10;57.25;;;;;;;;;;5070908;28;20054;-76
2022/12/17 22:33:59;;;;;;;117.15;79.47;;;;;;;;;;5088024;27;20099;-75
2022/12/17 22:36:28;;;;;;;119.82;90.57;;;;;;;;;;5068783;28;20039;-74
2022/12/17 22:38:54;;;;;;;68.18;56.47;;;;;;;;;;5088048;27;20028;-74
2022/12/17 22:44:03;;;;;;;55.85;47.55;;;;;;;;;;5086668;28;20365;-75
2022/12/17 22:46:29;;;;;;;53.17;43.72;;;;;;;;;;5087988;28;20024;-77
2022/12/17 22:48:55;;;;;;;50.95;44.50;;;;;;;;;;5070272;28;20119;-75
2022/12/17 22:51:21;;;;;;;55.85;48.50;;;;;;;;;;5087375;28;20034;-74
2022/12/17 22:53:46;;;;;;;45.28;40.28;;;;;;;;;;5071025;28;20027;-75
2022/12/17 22:56:11;;;;;;;43.08;36.90;;;;;;;;;;5088051;28;20432;-75
2022/12/17 22:58:37;;;;;;;40.97;36.33;;;;;;;;;;5070586;28;20032;-75
2022/12/17 23:01:03;;;;;;;42.53;37.13;;;;;;;;;;5087152;27;20035;-76
2022/12/17 23:03:28;;;;;;;44.30;37.92;;;;;;;;;;5069412;28;20051;-77
2022/12/17 23:06:04;;;;;;;40.35;35.75;;;;;;;;;;5069730;28;20023;-76
2022/12/17 23:08:29;;;;;;;45.05;39.38;;;;;;;;;;5069909;28;20058;-77
2022/12/17 23:10:55;;;;;;;41.22;36.60;;;;;;;;;;5088173;28;20027;-76
2022/12/17 23:13:20;;;;;;;43.83;36.47;;;;;;;;;;5087631;28;20522;-77
2022/12/17 23:15:46;;;;;;;46.80;36.70;;;;;;;;;;5086528;28;20085;-76
2022/12/17 23:18:11;;;;;;;55.70;45.40;;;;;;;;;;5087502;28;20027;-76
2022/12/17 23:20:36;;;;;;;47.28;41.00;;;;;;;;;;5087410;28;20034;-75
2022/12/17 23:23:02;;;;;;;77.75;60.03;;;;;;;;;;5071783;28;20042;-76
2022/12/17 23:25:28;;;;;;;56.10;44.90;;;;;;;;;;5088040;28;20442;-76
2022/12/17 23:27:53;;;;;;;51.88;42.60;;;;;;;;;;5087222;28;20024;-77
2022/12/17 23:30:19;;;;;;;53.47;45.33;;;;;;;;;;5086501;28;20012;-77
2022/12/17 23:32:44;;;;;;;69.88;56.53;;;;;;;;;;5088070;28;20035;-76
2022/12/17 23:35:10;;;;;;;67.47;53.50;;;;;;;;;;5080202;28;20412;-76
2022/12/17 23:37:36;;;;;;;89.25;68.80;;;;;;;;;;5091388;28;20072;-75
2022/12/17 23:40:02;;;;;;;90.20;67.60;;;;;;;;;;5101692;28;20104;-75
2022/12/17 23:42:27;;;;;;;67.40;52.60;;;;;;;;;;5102281;28;20076;-76
2022/12/17 23:44:53;;;;;;;81.78;59.83;;;;;;;;;;5099356;28;20438;-75
2022/12/17 23:47:18;;;;;;;79.40;56.65;;;;;;;;;;5087731;28;20527;-74
2022/12/17 23:49:43;;;;;;;86.22;62.08;;;;;;;;;;5094609;28;20038;-75
2022/12/17 23:52:09;;;;;;;92.93;66.95;;;;;;;;;;5101880;28;20027;-75
2022/12/17 23:54:34;;;;;;;80.10;59.47;;;;;;;;;;5100765;28;20080;-74
2022/12/17 23:57:00;;;;;;;63.38;51.33;;;;;;;;;;5100989;28;20103;-74
2022/12/17 23:59:25;;;;;;;65.57;53.28;;;;;;;;;;5102359;28;20068;-74
